sensor_id;sensor_type;location;lat;lon;timestamp;temperature;humidity
47252;DHT22;32991;51.374;11.586;2022-10-04T00:01:29;11.20;99.90
47252;DHT22;32991;51.374;11.586;2022-10-04T00:04:02;11.10;99.90
47252;DHT22;32991;51.374;11.586;2022-10-04T00:06:29;11.10;99.90
47252;DHT22;32991;51.374;11.586;2022-10-04T00:08:58;11.00;99.90
47252;DHT22;32991;51.374;11.586;2022-10-04T00:11:31;10.90;99.90
47252;DHT22;32991;51.374;11.586;2022-10-04T00:14:06;10.90;99.90
47252;DHT22;32991;51.374;11.586;2022-10-04T00:16:34;10.90;99.90
47252;DHT22;32991;51.374;11.586;2022-10-04T00:34:45;10.50;99.90
47252;DHT22;32991;51.374;11.586;2022-10-04T00:37:13;10.40;99.90
47252;DHT22;32991;51.374;11.586;2022-10-04T00:39:41;10.40;99.90
47252;DHT22;32991;51.374;11.586;2022-10-04T00:42:17;10.40;99.90
47252;DHT22;32991;51.374;11.586;2022-10-04T00:44:50;10.40;99.90
47252;DHT22;32991;51.374;11.586;2022-10-04T00:49:48;10.30;99.90
47252;DHT22;32991;51.374;11.586;2022-10-04T00:52:24;10.30;99.90
47252;DHT22;32991;51.374;11.586;2022-10-04T00:54:53;10.20;99.90
47252;DHT22;32991;51.374;11.586;2022-10-04T00:57:29;10.20;99.90
47252;DHT22;32991;51.374;11.586;2022-10-04T01:00:03;10.10;99.90
47252;DHT22;32991;51.374;11.586;2022-10-04T01:04:59;10.10;99.90
47252;DHT22;32991;51.374;11.586;2022-10-04T01:07:28;10.10;99.90
47252;DHT22;32991;51.374;11.586;2022-10-04T01:09:58;10.00;99.90
47252;DHT22;32991;51.374;11.586;2022-10-04T01:12:35;10.00;99.90
47252;DHT22;32991;51.374;11.586;2022-10-04T01:15:05;10.00;99.90
47252;DHT22;32991;51.374;11.586;2022-10-04T01:17:33;9.90;99.90
47252;DHT22;32991;51.374;11.586;2022-10-04T01:19:59;9.90;99.90
47252;DHT22;32991;51.374;11.586;2022-10-04T01:24:56;9.90;99.90
47252;DHT22;32991;51.374;11.586;2022-10-04T01:27:30;9.80;99.90
47252;DHT22;32991;51.374;11.586;2022-10-04T01:29:57;9.80;99.90
47252;DHT22;32991;51.374;11.586;2022-10-04T01:32:24;9.70;99.90
47252;DHT22;32991;51.374;11.586;2022-10-04T01:34:51;9.70;99.90
47252;DHT22;32991;51.374;11.586;2022-10-04T01:37:18;9.70;99.90
47252;DHT22;32991;51.374;11.586;2022-10-04T01:39:44;9.70;99.90
47252;DHT22;32991;51.374;11.586;2022-10-04T01:42:14;9.60;99.90
47252;DHT22;32991;51.374;11.586;2022-10-04T01:47:18;9.60;99.90
47252;DHT22;32991;51.374;11.586;2022-10-04T01:49:46;9.50;99.90
47252;DHT22;32991;51.374;11.586;2022-10-04T01:54:47;9.50;99.90
47252;DHT22;32991;51.374;11.586;2022-10-04T01:57:20;9.40;99.90
47252;DHT22;32991;51.374;11.586;2022-10-04T02:02:17;9.40;99.90
47252;DHT22;32991;51.374;11.586;2022-10-04T02:04:45;9.40;99.90
47252;DHT22;32991;51.374;11.586;2022-10-04T02:08:31;9.40;99.90
47252;DHT22;32991;51.374;11.586;2022-10-04T02:12:14;9.30;99.90
47252;DHT22;32991;51.374;11.586;2022-10-04T02:14:44;9.40;99.90
47252;DHT22;32991;51.374;11.586;2022-10-04T02:17:12;9.40;99.90
47252;DHT22;32991;51.374;11.586;2022-10-04T02:19:40;9.30;99.90
47252;DHT22;32991;51.374;11.586;2022-10-04T02:22:23;9.30;99.90
47252;DHT22;32991;51.374;11.586;2022-10-04T02:24:51;9.40;99.90
47252;DHT22;32991;51.374;11.586;2022-10-04T02:27:19;9.50;99.90
47252;DHT22;32991;51.374;11.586;2022-10-04T02:29:46;9.50;99.90
47252;DHT22;32991;51.374;11.586;2022-10-04T02:32:12;9.50;99.90
47252;DHT22;32991;51.374;11.586;2022-10-04T02:35:06;9.50;99.90
47252;DHT22;32991;51.374;11.586;2022-10-04T02:37:33;9.50;99.90
47252;DHT22;32991;51.374;11.586;2022-10-04T02:40:04;9.50;99.90
47252;DHT22;32991;51.374;11.586;2022-10-04T02:45:21;9.50;99.90
47252;DHT22;32991;51.374;11.586;2022-10-04T02:50:49;9.50;99.90
47252;DHT22;32991;51.374;11.586;2022-10-04T02:53:19;9.50;99.90
47252;DHT22;32991;51.374;11.586;2022-10-04T02:55:47;9.60;99.90
47252;DHT22;32991;51.374;11.586;2022-10-04T02:58:15;9.60;99.90
47252;DHT22;32991;51.374;11.586;2022-10-04T03:00:48;9.70;99.90
47252;DHT22;32991;51.374;11.586;2022-10-04T03:03:20;9.60;99.90
47252;DHT22;32991;51.374;11.586;2022-10-04T03:05:56;9.70;99.90
47252;DHT22;32991;51.374;11.586;2022-10-04T03:08:25;9.70;99.90
47252;DHT22;32991;51.374;11.586;2022-10-04T03:10:53;9.70;99.90
47252;DHT22;32991;51.374;11.586;2022-10-04T03:13:20;9.70;99.90
47252;DHT22;32991;51.374;11.586;2022-10-04T03:15:47;9.80;99.90
47252;DHT22;32991;51.374;11.586;2022-10-04T03:18:16;9.80;99.90
47252;DHT22;32991;51.374;11.586;2022-10-04T03:20:43;9.80;99.90
47252;DHT22;32991;51.374;11.586;2022-10-04T03:23:10;9.80;99.90
47252;DHT22;32991;51.374;11.586;2022-10-04T03:25:50;9.80;99.90
47252;DHT22;32991;51.374;11.586;2022-10-04T03:28:17;9.80;99.90
47252;DHT22;32991;51.374;11.586;2022-10-04T03:30:45;9.80;99.90
47252;DHT22;32991;51.374;11.586;2022-10-04T03:33:14;9.80;99.90
47252;DHT22;32991;51.374;11.586;2022-10-04T03:35:42;9.80;99.90
47252;DHT22;32991;51.374;11.586;2022-10-04T03:38:11;9.80;99.90
47252;DHT22;32991;51.374;11.586;2022-10-04T03:40:38;9.80;99.90
47252;DHT22;32991;51.374;11.586;2022-10-04T03:43:07;9.70;99.90
47252;DHT22;32991;51.374;11.586;2022-10-04T03:45:37;9.80;99.90
47252;DHT22;32991;51.374;11.586;2022-10-04T03:48:05;9.80;99.90
47252;DHT22;32991;51.374;11.586;2022-10-04T03:50:34;9.80;99.90
47252;DHT22;32991;51.374;11.586;2022-10-04T03:53:08;9.80;99.90
47252;DHT22;32991;51.374;11.586;2022-10-04T03:55:41;9.80;99.90
47252;DHT22;32991;51.374;11.586;2022-10-04T03:58:15;9.70;99.90
47252;DHT22;32991;51.374;11.586;2022-10-04T04:00:44;9.70;99.90
47252;DHT22;32991;51.374;11.586;2022-10-04T04:03:20;9.70;99.90
47252;DHT22;32991;51.374;11.586;2022-10-04T04:05:51;9.70;99.90
47252;DHT22;32991;51.374;11.586;2022-10-04T04:10:50;9.70;99.90
47252;DHT22;32991;51.374;11.586;2022-10-04T04:15:52;9.70;99.90
47252;DHT22;32991;51.374;11.586;2022-10-04T04:18:23;9.70;99.90
47252;DHT22;32991;51.374;11.586;2022-10-04T04:20:50;9.70;99.90
47252;DHT22;32991;51.374;11.586;2022-10-04T04:23:28;9.70;99.90
47252;DHT22;32991;51.374;11.586;2022-10-04T04:26:00;9.70;99.90
47252;DHT22;32991;51.374;11.586;2022-10-04T04:28:41;9.80;99.90
47252;DHT22;32991;51.374;11.586;2022-10-04T04:31:15;9.70;99.90
47252;DHT22;32991;51.374;11.586;2022-10-04T04:33:45;9.70;99.90
47252;DHT22;32991;51.374;11.586;2022-10-04T04:36:15;9.70;99.90
47252;DHT22;32991;51.374;11.586;2022-10-04T04:38:42;9.70;99.90
47252;DHT22;32991;51.374;11.586;2022-10-04T04:41:29;9.70;99.90
47252;DHT22;32991;51.374;11.586;2022-10-04T04:43:57;9.70;99.90
47252;DHT22;32991;51.374;11.586;2022-10-04T04:46:24;9.70;99.90
47252;DHT22;32991;51.374;11.586;2022-10-04T04:48:56;9.70;99.90
47252;DHT22;32991;51.374;11.586;2022-10-04T04:51:26;9.70;99.90
47252;DHT22;32991;51.374;11.586;2022-10-04T04:53:53;9.70;99.90
47252;DHT22;32991;51.374;11.586;2022-10-04T04:56:22;9.70;99.90
47252;DHT22;32991;51.374;11.586;2022-10-04T04:58:51;9.70;99.90
47252;DHT22;32991;51.374;11.586;2022-10-04T05:06:43;9.70;99.90
47252;DHT22;32991;51.374;11.586;2022-10-04T05:09:23;9.70;99.90
47252;DHT22;32991;51.374;11.586;2022-10-04T05:11:51;9.60;99.90
47252;DHT22;32991;51.374;11.586;2022-10-04T05:14:19;9.70;99.90
47252;DHT22;32991;51.374;11.586;2022-10-04T05:16:52;9.70;99.90
47252;DHT22;32991;51.374;11.586;2022-10-04T05:19:21;9.80;99.90
47252;DHT22;32991;51.374;11.586;2022-10-04T05:21:50;9.80;99.90
47252;DHT22;32991;51.374;11.586;2022-10-04T05:26:48;9.90;99.90
47252;DHT22;32991;51.374;11.586;2022-10-04T05:29:19;9.80;99.90
47252;DHT22;32991;51.374;11.586;2022-10-04T05:31:56;9.80;99.90
47252;DHT22;32991;51.374;11.586;2022-10-04T05:34:27;9.80;99.90
47252;DHT22;32991;51.374;11.586;2022-10-04T05:37:05;9.80;99.90
47252;DHT22;32991;51.374;11.586;2022-10-04T05:42:10;9.80;99.90
47252;DHT22;32991;51.374;11.586;2022-10-04T05:44:45;9.80;99.90
47252;DHT22;32991;51.374;11.586;2022-10-04T05:47:14;9.80;99.90
47252;DHT22;32991;51.374;11.586;2022-10-04T05:49:42;9.80;99.90
47252;DHT22;32991;51.374;11.586;2022-10-04T05:52:23;9.80;99.90
47252;DHT22;32991;51.374;11.586;2022-10-04T05:55:13;9.90;99.90
47252;DHT22;32991;51.374;11.586;2022-10-04T06:00:20;9.90;99.90
47252;DHT22;32991;51.374;11.586;2022-10-04T06:08:41;9.90;99.90
47252;DHT22;32991;51.374;11.586;2022-10-04T06:11:16;9.90;99.90
47252;DHT22;32991;51.374;11.586;2022-10-04T06:24:19;9.80;99.90
47252;DHT22;32991;51.374;11.586;2022-10-04T06:27:03;9.90;99.90
47252;DHT22;32991;51.374;11.586;2022-10-04T06:29:34;9.90;99.90
47252;DHT22;32991;51.374;11.586;2022-10-04T06:37:16;10.00;99.90
47252;DHT22;32991;51.374;11.586;2022-10-04T06:42:42;10.20;99.90
47252;DHT22;32991;51.374;11.586;2022-10-04T06:48:12;10.30;99.90
47252;DHT22;32991;51.374;11.586;2022-10-04T07:01:21;10.70;99.90
47252;DHT22;32991;51.374;11.586;2022-10-04T07:06:40;10.90;99.90
47252;DHT22;32991;51.374;11.586;2022-10-04T07:09:13;11.00;99.90
47252;DHT22;32991;51.374;11.586;2022-10-04T07:11:47;11.10;99.90
47252;DHT22;32991;51.374;11.586;2022-10-04T07:14:19;11.10;99.90
47252;DHT22;32991;51.374;11.586;2022-10-04T07:16:49;11.30;99.90
47252;DHT22;32991;51.374;11.586;2022-10-04T07:19:59;11.30;99.90
47252;DHT22;32991;51.374;11.586;2022-10-04T07:22:11;11.40;99.90
47252;DHT22;32991;51.374;11.586;2022-10-04T07:24:43;11.50;99.90
47252;DHT22;32991;51.374;11.586;2022-10-04T07:27:19;11.60;99.90
47252;DHT22;32991;51.374;11.586;2022-10-04T07:29:51;11.60;99.90
47252;DHT22;32991;51.374;11.586;2022-10-04T07:32:20;11.80;99.90
47252;DHT22;32991;51.374;11.586;2022-10-04T07:34:50;11.90;99.90
47252;DHT22;32991;51.374;11.586;2022-10-04T07:37:18;12.00;99.90
47252;DHT22;32991;51.374;11.586;2022-10-04T07:39:49;12.10;99.90
47252;DHT22;32991;51.374;11.586;2022-10-04T07:42:19;12.20;99.90
47252;DHT22;32991;51.374;11.586;2022-10-04T07:44:53;12.20;99.90
47252;DHT22;32991;51.374;11.586;2022-10-04T07:47:24;12.20;99.90
47252;DHT22;32991;51.374;11.586;2022-10-04T07:49:53;12.30;99.90
47252;DHT22;32991;51.374;11.586;2022-10-04T07:57:36;12.40;99.90
47252;DHT22;32991;51.374;11.586;2022-10-04T08:00:21;12.50;99.90
47252;DHT22;32991;51.374;11.586;2022-10-04T08:05:36;12.70;99.90
47252;DHT22;32991;51.374;11.586;2022-10-04T08:15:49;13.30;99.90
47252;DHT22;32991;51.374;11.586;2022-10-04T08:18:35;13.30;99.90
47252;DHT22;32991;51.374;11.586;2022-10-04T08:21:05;13.40;99.90
47252;DHT22;32991;51.374;11.586;2022-10-04T08:35:10;13.70;99.90
47252;DHT22;32991;51.374;11.586;2022-10-04T08:56:23;15.40;99.90
47252;DHT22;32991;51.374;11.586;2022-10-04T09:09:34;18.10;99.90
47252;DHT22;32991;51.374;11.586;2022-10-04T09:17:20;20.20;99.90
47252;DHT22;32991;51.374;11.586;2022-10-04T09:20:17;20.90;99.40
47252;DHT22;32991;51.374;11.586;2022-10-04T09:28:20;19.90;97.40
47252;DHT22;32991;51.374;11.586;2022-10-04T09:46:02;24.40;81.60
47252;DHT22;32991;51.374;11.586;2022-10-04T09:53:44;26.30;74.50
47252;DHT22;32991;51.374;11.586;2022-10-04T10:07:07;27.40;63.60
47252;DHT22;32991;51.374;11.586;2022-10-04T10:09:50;27.70;63.80
47252;DHT22;32991;51.374;11.586;2022-10-04T10:29:03;28.60;57.40
47252;DHT22;32991;51.374;11.586;2022-10-04T10:34:09;28.10;55.00
47252;DHT22;32991;51.374;11.586;2022-10-04T10:41:44;24.50;62.70
47252;DHT22;32991;51.374;11.586;2022-10-04T10:46:49;23.50;64.80
47252;DHT22;32991;51.374;11.586;2022-10-04T10:51:56;22.80;68.40
47252;DHT22;32991;51.374;11.586;2022-10-04T10:54:50;22.70;69.10
47252;DHT22;32991;51.374;11.586;2022-10-04T11:00:12;23.60;66.80
47252;DHT22;32991;51.374;11.586;2022-10-04T11:13:43;25.80;59.40
47252;DHT22;32991;51.374;11.586;2022-10-04T11:24:30;26.30;58.20
47252;DHT22;32991;51.374;11.586;2022-10-04T11:27:05;26.10;57.20
47252;DHT22;32991;51.374;11.586;2022-10-04T11:29:46;26.10;55.20
47252;DHT22;32991;51.374;11.586;2022-10-04T11:35:09;26.20;57.30
47252;DHT22;32991;51.374;11.586;2022-10-04T11:37:55;26.60;55.40
47252;DHT22;32991;51.374;11.586;2022-10-04T11:48:27;27.40;53.30
47252;DHT22;32991;51.374;11.586;2022-10-04T11:51:06;27.20;55.20
47252;DHT22;32991;51.374;11.586;2022-10-04T12:14:50;27.30;54.10
47252;DHT22;32991;51.374;11.586;2022-10-04T12:31:06;27.00;54.00
47252;DHT22;32991;51.374;11.586;2022-10-04T12:33:36;26.60;55.30
47252;DHT22;32991;51.374;11.586;2022-10-04T12:39:02;27.00;55.40
47252;DHT22;32991;51.374;11.586;2022-10-04T12:44:30;27.40;55.10
47252;DHT22;32991;51.374;11.586;2022-10-04T12:52:38;27.70;54.70
47252;DHT22;32991;51.374;11.586;2022-10-04T12:58:02;27.60;53.50
47252;DHT22;32991;51.374;11.586;2022-10-04T13:00:34;27.40;53.60
47252;DHT22;32991;51.374;11.586;2022-10-04T13:03:06;27.30;54.50
47252;DHT22;32991;51.374;11.586;2022-10-04T13:05:41;27.40;55.00
47252;DHT22;32991;51.374;11.586;2022-10-04T13:10:56;28.20;54.40
47252;DHT22;32991;51.374;11.586;2022-10-04T13:13:39;28.50;54.00
47252;DHT22;32991;51.374;11.586;2022-10-04T13:16:15;28.70;53.30
47252;DHT22;32991;51.374;11.586;2022-10-04T13:19:27;28.40;52.30
47252;DHT22;32991;51.374;11.586;2022-10-04T13:29:21;27.60;54.00
47252;DHT22;32991;51.374;11.586;2022-10-04T13:32:04;27.70;53.20
47252;DHT22;32991;51.374;11.586;2022-10-04T13:42:19;26.50;55.10
47252;DHT22;32991;51.374;11.586;2022-10-04T13:47:25;26.40;55.40
47252;DHT22;32991;51.374;11.586;2022-10-04T14:06:15;25.50;58.00
47252;DHT22;32991;51.374;11.586;2022-10-04T14:09:08;25.50;58.10
47252;DHT22;32991;51.374;11.586;2022-10-04T14:11:52;25.60;58.10
47252;DHT22;32991;51.374;11.586;2022-10-04T14:17:58;25.80;57.60
47252;DHT22;32991;51.374;11.586;2022-10-04T14:25:50;25.30;58.30
47252;DHT22;32991;51.374;11.586;2022-10-04T14:33:58;25.30;59.20
47252;DHT22;32991;51.374;11.586;2022-10-04T14:39:10;25.30;59.40
47252;DHT22;32991;51.374;11.586;2022-10-04T14:42:26;25.50;59.40
47252;DHT22;32991;51.374;11.586;2022-10-04T14:46:58;25.50;58.70
47252;DHT22;32991;51.374;11.586;2022-10-04T14:54:41;24.50;59.90
47252;DHT22;32991;51.374;11.586;2022-10-04T14:57:18;24.50;60.80
47252;DHT22;32991;51.374;11.586;2022-10-04T15:05:06;24.00;61.60
47252;DHT22;32991;51.374;11.586;2022-10-04T15:07:44;24.00;61.50
47252;DHT22;32991;51.374;11.586;2022-10-04T15:12:43;24.00;61.20
47252;DHT22;32991;51.374;11.586;2022-10-04T15:20:53;23.30;62.00
47252;DHT22;32991;51.374;11.586;2022-10-04T15:25:53;22.80;63.50
47252;DHT22;32991;51.374;11.586;2022-10-04T15:28:44;22.70;63.90
47252;DHT22;32991;51.374;11.586;2022-10-04T15:31:22;22.60;64.50
47252;DHT22;32991;51.374;11.586;2022-10-04T15:42:07;22.10;66.00
47252;DHT22;32991;51.374;11.586;2022-10-04T15:47:24;21.90;66.80
47252;DHT22;32991;51.374;11.586;2022-10-04T15:50:07;21.70;67.00
47252;DHT22;32991;51.374;11.586;2022-10-04T15:53:02;21.50;67.40
47252;DHT22;32991;51.374;11.586;2022-10-04T16:01:05;21.00;66.70
47252;DHT22;32991;51.374;11.586;2022-10-04T16:06:24;20.60;67.50
47252;DHT22;32991;51.374;11.586;2022-10-04T16:12:00;20.00;68.80
47252;DHT22;32991;51.374;11.586;2022-10-04T16:14:32;19.70;70.00
47252;DHT22;32991;51.374;11.586;2022-10-04T16:22:17;18.50;72.10
47252;DHT22;32991;51.374;11.586;2022-10-04T16:24:56;18.00;73.20
47252;DHT22;32991;51.374;11.586;2022-10-04T16:30:04;17.20;75.40
47252;DHT22;32991;51.374;11.586;2022-10-04T16:37:55;16.40;78.40
47252;DHT22;32991;51.374;11.586;2022-10-04T16:56:19;15.10;85.40
47252;DHT22;32991;51.374;11.586;2022-10-04T17:03:55;14.70;88.30
47252;DHT22;32991;51.374;11.586;2022-10-04T17:19:46;14.20;92.20
47252;DHT22;32991;51.374;11.586;2022-10-04T17:24:58;14.00;93.90
47252;DHT22;32991;51.374;11.586;2022-10-04T17:30:24;13.80;96.90
47252;DHT22;32991;51.374;11.586;2022-10-04T17:38:22;13.50;99.90
47252;DHT22;32991;51.374;11.586;2022-10-04T17:48:51;13.30;99.90
47252;DHT22;32991;51.374;11.586;2022-10-04T17:51:43;13.20;99.90
47252;DHT22;32991;51.374;11.586;2022-10-04T17:57:21;13.00;99.90
47252;DHT22;32991;51.374;11.586;2022-10-04T17:59:53;12.90;99.90
47252;DHT22;32991;51.374;11.586;2022-10-04T18:02:36;12.90;99.90
47252;DHT22;32991;51.374;11.586;2022-10-04T18:05:14;12.80;99.90
47252;DHT22;32991;51.374;11.586;2022-10-04T18:07:46;12.80;99.90
47252;DHT22;32991;51.374;11.586;2022-10-04T18:10:33;12.80;99.90
47252;DHT22;32991;51.374;11.586;2022-10-04T18:13:10;12.70;99.90
47252;DHT22;32991;51.374;11.586;2022-10-04T18:15:42;12.60;99.90
47252;DHT22;32991;51.374;11.586;2022-10-04T18:18:14;12.50;99.90
47252;DHT22;32991;51.374;11.586;2022-10-04T18:23:24;12.50;99.90
47252;DHT22;32991;51.374;11.586;2022-10-04T18:25:57;12.40;99.90
47252;DHT22;32991;51.374;11.586;2022-10-04T18:28:24;12.40;99.90
47252;DHT22;32991;51.374;11.586;2022-10-04T18:30:52;12.30;99.90
47252;DHT22;32991;51.374;11.586;2022-10-04T18:38:32;12.30;99.90
47252;DHT22;32991;51.374;11.586;2022-10-04T18:40:59;12.30;99.90
47252;DHT22;32991;51.374;11.586;2022-10-04T18:43:28;12.30;99.90
47252;DHT22;32991;51.374;11.586;2022-10-04T18:46:03;12.30;99.90
47252;DHT22;32991;51.374;11.586;2022-10-04T18:48:36;12.30;99.90
47252;DHT22;32991;51.374;11.586;2022-10-04T18:51:20;12.30;99.90
47252;DHT22;32991;51.374;11.586;2022-10-04T18:54:13;12.20;99.90
47252;DHT22;32991;51.374;11.586;2022-10-04T18:56:39;12.10;99.90
47252;DHT22;32991;51.374;11.586;2022-10-04T19:05:05;12.00;99.90
47252;DHT22;32991;51.374;11.586;2022-10-04T19:17:45;11.90;99.90
47252;DHT22;32991;51.374;11.586;2022-10-04T19:20:19;11.80;99.90
47252;DHT22;32991;51.374;11.586;2022-10-04T19:22:52;11.80;99.90
47252;DHT22;32991;51.374;11.586;2022-10-04T19:27:56;11.70;99.90
47252;DHT22;32991;51.374;11.586;2022-10-04T19:30:31;11.70;99.90
47252;DHT22;32991;51.374;11.586;2022-10-04T19:33:16;11.70;99.90
47252;DHT22;32991;51.374;11.586;2022-10-04T19:38:27;11.60;99.90
47252;DHT22;32991;51.374;11.586;2022-10-04T19:41:03;11.60;99.90
47252;DHT22;32991;51.374;11.586;2022-10-04T19:43:36;11.70;99.90
47252;DHT22;32991;51.374;11.586;2022-10-04T19:46:15;11.70;99.90
47252;DHT22;32991;51.374;11.586;2022-10-04T19:48:47;11.60;99.90
47252;DHT22;32991;51.374;11.586;2022-10-04T19:53:46;11.60;99.90
47252;DHT22;32991;51.374;11.586;2022-10-04T19:56:19;11.60;99.90
47252;DHT22;32991;51.374;11.586;2022-10-04T20:01:15;11.60;99.90
47252;DHT22;32991;51.374;11.586;2022-10-04T20:03:42;11.60;99.90
47252;DHT22;32991;51.374;11.586;2022-10-04T20:06:09;11.60;99.90
47252;DHT22;32991;51.374;11.586;2022-10-04T20:08:52;11.60;99.90
47252;DHT22;32991;51.374;11.586;2022-10-04T20:19:19;11.50;99.90
47252;DHT22;32991;51.374;11.586;2022-10-04T20:21:48;11.50;99.90
47252;DHT22;32991;51.374;11.586;2022-10-04T20:24:15;11.60;99.90
47252;DHT22;32991;51.374;11.586;2022-10-04T20:26:43;11.60;99.90
47252;DHT22;32991;51.374;11.586;2022-10-04T20:32:03;11.60;99.90
47252;DHT22;32991;51.374;11.586;2022-10-04T20:36:58;11.70;99.90
47252;DHT22;32991;51.374;11.586;2022-10-04T20:39:58;11.70;99.90
47252;DHT22;32991;51.374;11.586;2022-10-04T20:42:32;11.70;99.90
47252;DHT22;32991;51.374;11.586;2022-10-04T20:44:59;11.70;99.90
47252;DHT22;32991;51.374;11.586;2022-10-04T20:47:46;11.70;99.90
47252;DHT22;32991;51.374;11.586;2022-10-04T20:50:30;11.70;99.90
47252;DHT22;32991;51.374;11.586;2022-10-04T20:53:04;11.60;99.90
47252;DHT22;32991;51.374;11.586;2022-10-04T20:55:33;11.50;99.90
47252;DHT22;32991;51.374;11.586;2022-10-04T20:58:19;11.40;99.90
47252;DHT22;32991;51.374;11.586;2022-10-04T21:00:53;11.30;99.90
47252;DHT22;32991;51.374;11.586;2022-10-04T21:03:20;11.20;99.90
47252;DHT22;32991;51.374;11.586;2022-10-04T21:05:57;11.20;99.90
47252;DHT22;32991;51.374;11.586;2022-10-04T21:08:25;11.10;99.90
47252;DHT22;32991;51.374;11.586;2022-10-04T21:11:06;11.10;99.90
47252;DHT22;32991;51.374;11.586;2022-10-04T21:13:40;11.00;99.90
47252;DHT22;32991;51.374;11.586;2022-10-04T21:16:09;11.00;99.90
47252;DHT22;32991;51.374;11.586;2022-10-04T21:18:36;10.90;99.90
47252;DHT22;32991;51.374;11.586;2022-10-04T21:21:03;10.80;99.90
47252;DHT22;32991;51.374;11.586;2022-10-04T21:23:33;10.80;99.90
47252;DHT22;32991;51.374;11.586;2022-10-04T21:28:52;10.70;99.90
47252;DHT22;32991;51.374;11.586;2022-10-04T21:31:19;10.70;99.90
47252;DHT22;32991;51.374;11.586;2022-10-04T21:33:46;10.60;99.90
47252;DHT22;32991;51.374;11.586;2022-10-04T21:36:13;10.60;99.90
47252;DHT22;32991;51.374;11.586;2022-10-04T21:38:40;10.60;99.90
47252;DHT22;32991;51.374;11.586;2022-10-04T21:41:07;10.60;99.90
47252;DHT22;32991;51.374;11.586;2022-10-04T21:43:33;10.60;99.90
47252;DHT22;32991;51.374;11.586;2022-10-04T21:46:00;10.50;99.90
47252;DHT22;32991;51.374;11.586;2022-10-04T21:48:27;10.50;99.90
47252;DHT22;32991;51.374;11.586;2022-10-04T21:50:54;10.50;99.90
47252;DHT22;32991;51.374;11.586;2022-10-04T21:53:21;10.40;99.90
47252;DHT22;32991;51.374;11.586;2022-10-04T21:55:48;10.40;99.90
47252;DHT22;32991;51.374;11.586;2022-10-04T21:58:14;10.30;99.90
47252;DHT22;32991;51.374;11.586;2022-10-04T22:00:41;10.30;99.90
47252;DHT22;32991;51.374;11.586;2022-10-04T22:03:08;10.30;99.90
47252;DHT22;32991;51.374;11.586;2022-10-04T22:05:34;10.30;99.90
47252;DHT22;32991;51.374;11.586;2022-10-04T22:08:01;10.40;99.90
47252;DHT22;32991;51.374;11.586;2022-10-04T22:10:28;10.40;99.90
47252;DHT22;32991;51.374;11.586;2022-10-04T22:12:55;10.40;99.90
47252;DHT22;32991;51.374;11.586;2022-10-04T22:15:23;10.40;99.90
47252;DHT22;32991;51.374;11.586;2022-10-04T22:17:50;10.40;99.90
47252;DHT22;32991;51.374;11.586;2022-10-04T22:20:17;10.40;99.90
47252;DHT22;32991;51.374;11.586;2022-10-04T22:22:44;10.40;99.90
47252;DHT22;32991;51.374;11.586;2022-10-04T22:25:18;10.30;99.90
47252;DHT22;32991;51.374;11.586;2022-10-04T22:27:45;10.30;99.90
47252;DHT22;32991;51.374;11.586;2022-10-04T22:32:45;10.20;99.90
47252;DHT22;32991;51.374;11.586;2022-10-04T22:35:13;10.10;99.90
47252;DHT22;32991;51.374;11.586;2022-10-04T22:37:40;10.10;99.90
47252;DHT22;32991;51.374;11.586;2022-10-04T22:40:12;10.10;99.90
47252;DHT22;32991;51.374;11.586;2022-10-04T22:42:40;10.00;99.90
47252;DHT22;32991;51.374;11.586;2022-10-04T22:45:10;9.90;99.90
47252;DHT22;32991;51.374;11.586;2022-10-04T22:47:41;9.90;99.90
47252;DHT22;32991;51.374;11.586;2022-10-04T22:50:25;9.80;99.90
47252;DHT22;32991;51.374;11.586;2022-10-04T22:52:52;9.80;99.90
47252;DHT22;32991;51.374;11.586;2022-10-04T22:55:18;9.70;99.90
47252;DHT22;32991;51.374;11.586;2022-10-04T22:57:45;9.80;99.90
47252;DHT22;32991;51.374;11.586;2022-10-04T23:00:12;9.80;99.90
47252;DHT22;32991;51.374;11.586;2022-10-04T23:02:39;9.80;99.90
47252;DHT22;32991;51.374;11.586;2022-10-04T23:05:13;9.90;99.90
47252;DHT22;32991;51.374;11.586;2022-10-04T23:07:44;9.80;99.90
47252;DHT22;32991;51.374;11.586;2022-10-04T23:10:11;9.80;99.90
47252;DHT22;32991;51.374;11.586;2022-10-04T23:12:38;9.80;99.90
47252;DHT22;32991;51.374;11.586;2022-10-04T23:15:06;9.80;99.90
47252;DHT22;32991;51.374;11.586;2022-10-04T23:17:34;9.80;99.90
47252;DHT22;32991;51.374;11.586;2022-10-04T23:22:31;9.70;99.90
47252;DHT22;32991;51.374;11.586;2022-10-04T23:24:58;9.60;99.90
47252;DHT22;32991;51.374;11.586;2022-10-04T23:27:25;9.60;99.90
47252;DHT22;32991;51.374;11.586;2022-10-04T23:29:56;9.50;99.90
47252;DHT22;32991;51.374;11.586;2022-10-04T23:32:23;9.50;99.90
47252;DHT22;32991;51.374;11.586;2022-10-04T23:34:51;9.40;99.90
47252;DHT22;32991;51.374;11.586;2022-10-04T23:37:26;9.40;99.90
47252;DHT22;32991;51.374;11.586;2022-10-04T23:39:55;9.40;99.90
47252;DHT22;32991;51.374;11.586;2022-10-04T23:42:23;9.40;99.90
47252;DHT22;32991;51.374;11.586;2022-10-04T23:44:55;9.30;99.90
47252;DHT22;32991;51.374;11.586;2022-10-04T23:47:23;9.30;99.90
47252;DHT22;32991;51.374;11.586;2022-10-04T23:49:51;9.30;99.90
47252;DHT22;32991;51.374;11.586;2022-10-04T23:52:20;9.30;99.90
47252;DHT22;32991;51.374;11.586;2022-10-04T23:54:47;9.20;99.90
47252;DHT22;32991;51.374;11.586;2022-10-04T23:57:18;9.20;99.90
47252;DHT22;32991;51.374;11.586;2022-10-04T23:59:46;9.20;99.90
